sensor_id;sensor_type;location;lat;lon;timestamp;pressure;altitude;pressure_sealevel;temperature;humidity
74090;BME280;62448;-26.094;27.994;2022-07-29T00:00:15;85208.93;;;12.62;16.50
74090;BME280;62448;-26.094;27.994;2022-07-29T00:02:39;85201.83;;;12.55;16.49
74090;BME280;62448;-26.094;27.994;2022-07-29T00:05:07;85201.03;;;12.38;16.52
74090;BME280;62448;-26.094;27.994;2022-07-29T00:07:30;85206.69;;;12.44;16.59
74090;BME280;62448;-26.094;27.994;2022-07-29T00:09:55;85209.73;;;12.55;16.54
74090;BME280;62448;-26.094;27.994;2022-07-29T00:12:22;85213.27;;;12.29;16.64
74090;BME280;62448;-26.094;27.994;2022-07-29T00:14:46;85207.38;;;12.75;16.44
74090;BME280;62448;-26.094;27.994;2022-07-29T00:17:12;85203.10;;;12.37;16.53
74090;BME280;62448;-26.094;27.994;2022-07-29T00:19:37;85205.64;;;12.47;16.58
74090;BME280;62448;-26.094;27.994;2022-07-29T00:22:03;85208.49;;;12.00;17.26
74090;BME280;62448;-26.094;27.994;2022-07-29T00:24:28;85205.28;;;11.61;17.57
74090;BME280;62448;-26.094;27.994;2022-07-29T00:26:54;85207.06;;;11.92;17.45
74090;BME280;62448;-26.094;27.994;2022-07-29T00:29:20;85207.60;;;11.91;17.52
74090;BME280;62448;-26.094;27.994;2022-07-29T00:31:45;85206.15;;;11.41;17.86
74090;BME280;62448;-26.094;27.994;2022-07-29T00:34:11;85203.28;;;11.46;17.73
74090;BME280;62448;-26.094;27.994;2022-07-29T00:36:37;85204.23;;;11.52;17.75
74090;BME280;62448;-26.094;27.994;2022-07-29T00:39:02;85208.19;;;11.28;18.02
74090;BME280;62448;-26.094;27.994;2022-07-29T00:41:28;85207.18;;;11.43;17.90
74090;BME280;62448;-26.094;27.994;2022-07-29T00:43:53;85202.62;;;11.28;18.03
74090;BME280;62448;-26.094;27.994;2022-07-29T00:46:23;85202.06;;;11.31;17.73
74090;BME280;62448;-26.094;27.994;2022-07-29T00:48:44;85202.77;;;11.23;17.31
74090;BME280;62448;-26.094;27.994;2022-07-29T00:51:09;85197.76;;;11.80;17.17
74090;BME280;62448;-26.094;27.994;2022-07-29T00:53:36;85196.03;;;11.66;17.18
74090;BME280;62448;-26.094;27.994;2022-07-29T00:56:01;85195.37;;;11.75;17.03
74090;BME280;62448;-26.094;27.994;2022-07-29T00:58:27;85192.60;;;11.34;17.23
74090;BME280;62448;-26.094;27.994;2022-07-29T01:00:52;85188.49;;;11.79;17.01
74090;BME280;62448;-26.094;27.994;2022-07-29T01:03:17;85181.24;;;12.11;16.83
74090;BME280;62448;-26.094;27.994;2022-07-29T01:05:45;85182.78;;;12.39;16.83
74090;BME280;62448;-26.094;27.994;2022-07-29T01:08:10;85181.94;;;12.44;16.76
74090;BME280;62448;-26.094;27.994;2022-07-29T01:10:38;85186.03;;;11.96;16.90
74090;BME280;62448;-26.094;27.994;2022-07-29T01:13:00;85188.70;;;12.17;16.80
74090;BME280;62448;-26.094;27.994;2022-07-29T01:15:25;85189.31;;;12.00;17.09
74090;BME280;62448;-26.094;27.994;2022-07-29T01:17:56;85183.57;;;11.69;17.61
74090;BME280;62448;-26.094;27.994;2022-07-29T01:20:20;85185.53;;;11.96;17.53
74090;BME280;62448;-26.094;27.994;2022-07-29T01:23:01;85184.90;;;11.68;17.80
74090;BME280;62448;-26.094;27.994;2022-07-29T01:25:50;85183.83;;;11.38;18.11
74090;BME280;62448;-26.094;27.994;2022-07-29T01:27:44;85185.33;;;11.09;18.08
74090;BME280;62448;-26.094;27.994;2022-07-29T01:29:59;85186.32;;;11.68;18.02
74090;BME280;62448;-26.094;27.994;2022-07-29T01:32:25;85189.59;;;11.40;17.98
74090;BME280;62448;-26.094;27.994;2022-07-29T01:34:52;85187.46;;;11.24;18.18
74090;BME280;62448;-26.094;27.994;2022-07-29T01:37:18;85188.58;;;11.11;18.21
74090;BME280;62448;-26.094;27.994;2022-07-29T01:39:39;85188.24;;;10.85;18.31
74090;BME280;62448;-26.094;27.994;2022-07-29T01:42:12;85191.99;;;10.83;18.38
74090;BME280;62448;-26.094;27.994;2022-07-29T01:44:35;85193.58;;;10.82;18.26
74090;BME280;62448;-26.094;27.994;2022-07-29T01:46:58;85189.89;;;11.00;18.01
74090;BME280;62448;-26.094;27.994;2022-07-29T01:49:24;85187.69;;;10.96;17.58
74090;BME280;62448;-26.094;27.994;2022-07-29T01:51:51;85187.75;;;11.43;17.35
74090;BME280;62448;-26.094;27.994;2022-07-29T01:54:18;85187.53;;;11.72;17.35
74090;BME280;62448;-26.094;27.994;2022-07-29T01:56:39;85184.76;;;11.36;17.31
74090;BME280;62448;-26.094;27.994;2022-07-29T01:59:06;85177.59;;;11.46;17.41
74090;BME280;62448;-26.094;27.994;2022-07-29T02:01:30;85175.12;;;11.40;17.39
74090;BME280;62448;-26.094;27.994;2022-07-29T02:03:55;85171.30;;;11.75;17.19
74090;BME280;62448;-26.094;27.994;2022-07-29T02:06:22;85175.16;;;11.52;17.14
74090;BME280;62448;-26.094;27.994;2022-07-29T02:08:47;85169.52;;;12.20;17.16
74090;BME280;62448;-26.094;27.994;2022-07-29T02:11:12;85167.93;;;11.43;17.68
74090;BME280;62448;-26.094;27.994;2022-07-29T02:13:38;85166.83;;;11.05;18.04
74090;BME280;62448;-26.094;27.994;2022-07-29T02:16:05;85168.49;;;10.77;18.30
74090;BME280;62448;-26.094;27.994;2022-07-29T02:18:30;85164.52;;;10.81;18.28
74090;BME280;62448;-26.094;27.994;2022-07-29T02:20:56;85159.12;;;11.31;18.15
74090;BME280;62448;-26.094;27.994;2022-07-29T02:23:21;85163.19;;;10.80;18.35
74090;BME280;62448;-26.094;27.994;2022-07-29T02:25:46;85166.99;;;11.05;18.36
74090;BME280;62448;-26.094;27.994;2022-07-29T02:28:11;85173.32;;;11.14;18.35
74090;BME280;62448;-26.094;27.994;2022-07-29T02:30:39;85172.98;;;11.07;18.40
74090;BME280;62448;-26.094;27.994;2022-07-29T02:33:02;85169.21;;;11.13;18.18
74090;BME280;62448;-26.094;27.994;2022-07-29T02:35:27;85163.67;;;10.85;18.52
74090;BME280;62448;-26.094;27.994;2022-07-29T02:37:53;85162.12;;;10.76;18.48
74090;BME280;62448;-26.094;27.994;2022-07-29T02:40:18;85160.96;;;10.54;18.69
74090;BME280;62448;-26.094;27.994;2022-07-29T02:42:44;85163.98;;;10.55;18.64
74090;BME280;62448;-26.094;27.994;2022-07-29T02:45:09;85171.91;;;10.38;18.64
74090;BME280;62448;-26.094;27.994;2022-07-29T02:47:37;85179.45;;;10.56;18.38
74090;BME280;62448;-26.094;27.994;2022-07-29T02:50:03;85177.33;;;10.98;17.90
74090;BME280;62448;-26.094;27.994;2022-07-29T02:52:29;85175.05;;;11.08;17.70
74090;BME280;62448;-26.094;27.994;2022-07-29T02:54:55;85178.79;;;10.87;17.63
74090;BME280;62448;-26.094;27.994;2022-07-29T02:57:22;85186.21;;;11.14;17.47
74090;BME280;62448;-26.094;27.994;2022-07-29T02:59:43;85190.01;;;11.55;17.32
74090;BME280;62448;-26.094;27.994;2022-07-29T03:02:07;85191.03;;;11.40;17.39
74090;BME280;62448;-26.094;27.994;2022-07-29T03:04:33;85195.19;;;11.84;17.59
74090;BME280;62448;-26.094;27.994;2022-07-29T03:06:59;85191.58;;;11.24;17.99
74090;BME280;62448;-26.094;27.994;2022-07-29T03:09:24;85193.59;;;10.91;18.32
74090;BME280;62448;-26.094;27.994;2022-07-29T03:11:49;85194.79;;;11.19;18.26
74090;BME280;62448;-26.094;27.994;2022-07-29T03:14:14;85187.07;;;10.34;18.64
74090;BME280;62448;-26.094;27.994;2022-07-29T03:16:39;85182.12;;;10.62;18.60
74090;BME280;62448;-26.094;27.994;2022-07-29T03:19:05;85179.53;;;10.68;18.65
74090;BME280;62448;-26.094;27.994;2022-07-29T03:21:30;85183.85;;;10.63;18.53
74090;BME280;62448;-26.094;27.994;2022-07-29T03:23:55;85190.52;;;10.48;18.70
74090;BME280;62448;-26.094;27.994;2022-07-29T03:26:21;85192.77;;;10.82;18.55
74090;BME280;62448;-26.094;27.994;2022-07-29T03:28:46;85192.51;;;10.76;18.60
74090;BME280;62448;-26.094;27.994;2022-07-29T03:31:13;85190.98;;;10.37;18.80
74090;BME280;62448;-26.094;27.994;2022-07-29T03:33:37;85192.55;;;10.77;18.20
74090;BME280;62448;-26.094;27.994;2022-07-29T03:36:03;85195.96;;;11.22;17.85
74090;BME280;62448;-26.094;27.994;2022-07-29T03:38:30;85200.58;;;11.53;17.62
74090;BME280;62448;-26.094;27.994;2022-07-29T03:40:57;85204.59;;;11.41;17.61
74090;BME280;62448;-26.094;27.994;2022-07-29T03:43:20;85207.69;;;11.48;17.57
74090;BME280;62448;-26.094;27.994;2022-07-29T03:46:05;85207.54;;;11.12;17.98
74090;BME280;62448;-26.094;27.994;2022-07-29T03:48:30;85212.06;;;11.18;17.62
74090;BME280;62448;-26.094;27.994;2022-07-29T03:50:54;85213.57;;;11.46;17.62
74090;BME280;62448;-26.094;27.994;2022-07-29T03:53:22;85215.56;;;11.72;17.47
74090;BME280;62448;-26.094;27.994;2022-07-29T03:55:47;85219.18;;;11.81;17.40
74090;BME280;62448;-26.094;27.994;2022-07-29T03:58:11;85219.12;;;11.49;17.73
74090;BME280;62448;-26.094;27.994;2022-07-29T04:00:36;85217.43;;;11.56;18.15
74090;BME280;62448;-26.094;27.994;2022-07-29T04:03:02;85221.40;;;11.24;18.27
74090;BME280;62448;-26.094;27.994;2022-07-29T04:05:27;85223.77;;;11.33;18.36
74090;BME280;62448;-26.094;27.994;2022-07-29T04:07:52;85221.57;;;11.25;18.36
74090;BME280;62448;-26.094;27.994;2022-07-29T04:10:18;85221.07;;;10.41;18.72
74090;BME280;62448;-26.094;27.994;2022-07-29T04:12:43;85217.67;;;10.62;18.67
74090;BME280;62448;-26.094;27.994;2022-07-29T04:15:09;85218.48;;;10.51;18.85
74090;BME280;62448;-26.094;27.994;2022-07-29T04:17:33;85219.17;;;9.74;18.86
74090;BME280;62448;-26.094;27.994;2022-07-29T04:19:58;85222.77;;;10.53;18.78
74090;BME280;62448;-26.094;27.994;2022-07-29T04:22:24;85220.59;;;10.47;19.26
74090;BME280;62448;-26.094;27.994;2022-07-29T04:24:49;85220.91;;;10.39;19.58
74090;BME280;62448;-26.094;27.994;2022-07-29T04:27:15;85220.79;;;10.33;19.66
74090;BME280;62448;-26.094;27.994;2022-07-29T04:29:40;85227.02;;;10.45;19.94
74090;BME280;62448;-26.094;27.994;2022-07-29T04:32:06;85226.96;;;10.50;19.88
74090;BME280;62448;-26.094;27.994;2022-07-29T04:34:30;85224.34;;;10.29;20.20
74090;BME280;62448;-26.094;27.994;2022-07-29T04:36:56;85221.28;;;10.16;20.27
74090;BME280;62448;-26.094;27.994;2022-07-29T04:39:21;85221.28;;;10.08;20.32
74090;BME280;62448;-26.094;27.994;2022-07-29T04:41:47;85223.75;;;10.30;20.33
74090;BME280;62448;-26.094;27.994;2022-07-29T04:44:12;85220.40;;;10.41;20.27
74090;BME280;62448;-26.094;27.994;2022-07-29T04:46:38;85221.91;;;9.59;20.13
74090;BME280;62448;-26.094;27.994;2022-07-29T04:49:04;85222.52;;;11.03;19.37
74090;BME280;62448;-26.094;27.994;2022-07-29T04:51:29;85228.38;;;11.05;19.56
74090;BME280;62448;-26.094;27.994;2022-07-29T04:53:54;85231.43;;;10.82;19.70
74090;BME280;62448;-26.094;27.994;2022-07-29T04:56:19;85233.29;;;11.18;19.59
74090;BME280;62448;-26.094;27.994;2022-07-29T04:58:45;85227.32;;;10.79;19.77
74090;BME280;62448;-26.094;27.994;2022-07-29T05:01:10;85227.08;;;10.87;19.60
74090;BME280;62448;-26.094;27.994;2022-07-29T05:03:35;85221.13;;;10.52;19.89
74090;BME280;62448;-26.094;27.994;2022-07-29T05:06:01;85219.33;;;10.23;20.06
74090;BME280;62448;-26.094;27.994;2022-07-29T05:08:26;85224.04;;;10.85;19.64
74090;BME280;62448;-26.094;27.994;2022-07-29T05:10:52;85221.29;;;10.16;19.87
74090;BME280;62448;-26.094;27.994;2022-07-29T05:13:18;85221.67;;;10.04;19.93
74090;BME280;62448;-26.094;27.994;2022-07-29T05:15:43;85222.35;;;10.70;19.62
74090;BME280;62448;-26.094;27.994;2022-07-29T05:18:09;85220.46;;;10.29;19.83
74090;BME280;62448;-26.094;27.994;2022-07-29T05:20:35;85221.62;;;9.93;20.02
74090;BME280;62448;-26.094;27.994;2022-07-29T05:23:01;85220.32;;;9.87;20.04
74090;BME280;62448;-26.094;27.994;2022-07-29T05:25:26;85223.28;;;10.33;19.89
74090;BME280;62448;-26.094;27.994;2022-07-29T05:27:51;85222.75;;;10.51;19.73
74090;BME280;62448;-26.094;27.994;2022-07-29T05:30:16;85224.57;;;10.49;19.61
74090;BME280;62448;-26.094;27.994;2022-07-29T05:32:41;85229.33;;;10.46;19.75
74090;BME280;62448;-26.094;27.994;2022-07-29T05:35:08;85232.45;;;11.03;19.39
74090;BME280;62448;-26.094;27.994;2022-07-29T05:37:32;85236.23;;;10.33;19.66
74090;BME280;62448;-26.094;27.994;2022-07-29T05:39:57;85239.34;;;10.10;19.81
74090;BME280;62448;-26.094;27.994;2022-07-29T05:42:23;85241.28;;;10.47;19.61
74090;BME280;62448;-26.094;27.994;2022-07-29T05:44:49;85246.88;;;10.10;19.76
74090;BME280;62448;-26.094;27.994;2022-07-29T05:47:14;85246.33;;;10.03;19.50
74090;BME280;62448;-26.094;27.994;2022-07-29T05:49:40;85247.29;;;10.69;19.16
74090;BME280;62448;-26.094;27.994;2022-07-29T05:52:06;85243.58;;;10.11;19.53
74090;BME280;62448;-26.094;27.994;2022-07-29T05:54:31;85239.55;;;9.88;20.00
74090;BME280;62448;-26.094;27.994;2022-07-29T05:56:57;85241.07;;;9.85;20.15
74090;BME280;62448;-26.094;27.994;2022-07-29T05:59:22;85240.80;;;9.98;20.29
74090;BME280;62448;-26.094;27.994;2022-07-29T06:01:48;85240.11;;;9.75;20.40
74090;BME280;62448;-26.094;27.994;2022-07-29T06:04:14;85244.48;;;9.76;20.37
74090;BME280;62448;-26.094;27.994;2022-07-29T06:06:39;85245.81;;;9.62;20.59
74090;BME280;62448;-26.094;27.994;2022-07-29T06:09:05;85246.56;;;9.97;20.41
74090;BME280;62448;-26.094;27.994;2022-07-29T06:11:30;85245.62;;;10.29;20.27
74090;BME280;62448;-26.094;27.994;2022-07-29T06:13:56;85249.54;;;10.31;20.20
74090;BME280;62448;-26.094;27.994;2022-07-29T06:16:21;85253.25;;;9.84;20.38
74090;BME280;62448;-26.094;27.994;2022-07-29T06:18:46;85251.04;;;9.94;20.53
74090;BME280;62448;-26.094;27.994;2022-07-29T06:21:12;85255.24;;;10.09;20.63
74090;BME280;62448;-26.094;27.994;2022-07-29T06:23:38;85259.45;;;9.92;20.60
74090;BME280;62448;-26.094;27.994;2022-07-29T06:26:03;85259.44;;;10.00;20.67
74090;BME280;62448;-26.094;27.994;2022-07-29T06:28:28;85259.49;;;10.23;20.60
74090;BME280;62448;-26.094;27.994;2022-07-29T06:30:54;85265.29;;;10.05;20.87
74090;BME280;62448;-26.094;27.994;2022-07-29T06:33:19;85271.98;;;9.80;20.97
74090;BME280;62448;-26.094;27.994;2022-07-29T06:35:45;85275.94;;;10.03;20.88
74090;BME280;62448;-26.094;27.994;2022-07-29T06:38:10;85278.73;;;10.04;20.86
74090;BME280;62448;-26.094;27.994;2022-07-29T06:40:35;85275.05;;;9.77;20.82
74090;BME280;62448;-26.094;27.994;2022-07-29T06:43:01;85271.23;;;10.49;20.43
74090;BME280;62448;-26.094;27.994;2022-07-29T06:45:26;85280.34;;;10.19;20.49
74090;BME280;62448;-26.094;27.994;2022-07-29T06:47:53;85288.92;;;9.55;20.54
74090;BME280;62448;-26.094;27.994;2022-07-29T06:50:17;85294.05;;;10.31;20.29
74090;BME280;62448;-26.094;27.994;2022-07-29T06:52:42;85290.90;;;10.24;20.38
74090;BME280;62448;-26.094;27.994;2022-07-29T06:55:09;85289.91;;;10.09;20.50
74090;BME280;62448;-26.094;27.994;2022-07-29T06:57:34;85285.95;;;9.90;20.44
74090;BME280;62448;-26.094;27.994;2022-07-29T07:00:00;85288.51;;;9.98;20.46
74090;BME280;62448;-26.094;27.994;2022-07-29T07:02:25;85285.38;;;9.35;20.62
74090;BME280;62448;-26.094;27.994;2022-07-29T07:04:50;85284.45;;;9.85;20.52
74090;BME280;62448;-26.094;27.994;2022-07-29T07:07:15;85285.83;;;10.16;20.44
74090;BME280;62448;-26.094;27.994;2022-07-29T07:09:41;85287.61;;;9.80;20.56
74090;BME280;62448;-26.094;27.994;2022-07-29T07:12:07;85287.99;;;9.77;20.58
74090;BME280;62448;-26.094;27.994;2022-07-29T07:14:33;85289.39;;;9.68;20.63
74090;BME280;62448;-26.094;27.994;2022-07-29T07:16:59;85286.37;;;9.64;20.64
74090;BME280;62448;-26.094;27.994;2022-07-29T07:19:23;85286.16;;;9.77;20.62
74090;BME280;62448;-26.094;27.994;2022-07-29T07:21:49;85285.18;;;9.34;20.78
74090;BME280;62448;-26.094;27.994;2022-07-29T07:24:14;85285.20;;;9.84;20.57
74090;BME280;62448;-26.094;27.994;2022-07-29T07:26:40;85286.05;;;9.77;20.48
74090;BME280;62448;-26.094;27.994;2022-07-29T07:29:05;85287.34;;;9.95;20.36
74090;BME280;62448;-26.094;27.994;2022-07-29T07:31:30;85287.53;;;9.83;20.63
74090;BME280;62448;-26.094;27.994;2022-07-29T07:33:56;85283.70;;;9.83;20.77
74090;BME280;62448;-26.094;27.994;2022-07-29T07:36:22;85283.57;;;9.74;20.90
74090;BME280;62448;-26.094;27.994;2022-07-29T07:38:47;85284.31;;;9.67;21.18
74090;BME280;62448;-26.094;27.994;2022-07-29T07:41:12;85290.06;;;9.79;21.16
74090;BME280;62448;-26.094;27.994;2022-07-29T07:43:37;85285.86;;;9.86;21.16
74090;BME280;62448;-26.094;27.994;2022-07-29T07:46:03;85287.41;;;9.87;21.19
74090;BME280;62448;-26.094;27.994;2022-07-29T07:48:29;85292.74;;;9.77;20.84
74090;BME280;62448;-26.094;27.994;2022-07-29T07:50:54;85289.89;;;9.84;20.68
74090;BME280;62448;-26.094;27.994;2022-07-29T07:53:21;85286.29;;;10.42;20.34
74090;BME280;62448;-26.094;27.994;2022-07-29T07:55:45;85284.79;;;10.32;20.12
74090;BME280;62448;-26.094;27.994;2022-07-29T07:58:10;85280.73;;;10.22;20.33
74090;BME280;62448;-26.094;27.994;2022-07-29T08:00:36;85281.17;;;10.67;20.14
74090;BME280;62448;-26.094;27.994;2022-07-29T08:03:01;85277.80;;;9.84;20.30
74090;BME280;62448;-26.094;27.994;2022-07-29T08:05:27;85272.24;;;10.60;20.04
74090;BME280;62448;-26.094;27.994;2022-07-29T08:07:52;85271.54;;;10.98;19.83
74090;BME280;62448;-26.094;27.994;2022-07-29T08:10:20;85272.37;;;10.82;19.94
74090;BME280;62448;-26.094;27.994;2022-07-29T08:12:43;85271.90;;;10.52;20.01
74090;BME280;62448;-26.094;27.994;2022-07-29T08:15:09;85278.01;;;10.76;19.55
74090;BME280;62448;-26.094;27.994;2022-07-29T08:17:34;85276.68;;;10.61;19.62
74090;BME280;62448;-26.094;27.994;2022-07-29T08:19:59;85280.49;;;11.34;19.07
74090;BME280;62448;-26.094;27.994;2022-07-29T08:22:25;85283.41;;;10.82;19.41
74090;BME280;62448;-26.094;27.994;2022-07-29T08:24:51;85281.07;;;10.67;19.40
74090;BME280;62448;-26.094;27.994;2022-07-29T08:27:16;85277.39;;;11.09;19.39
74090;BME280;62448;-26.094;27.994;2022-07-29T08:29:41;85274.91;;;10.70;19.75
74090;BME280;62448;-26.094;27.994;2022-07-29T08:32:07;85273.68;;;10.65;19.49
74090;BME280;62448;-26.094;27.994;2022-07-29T08:34:33;85272.49;;;10.98;19.37
74090;BME280;62448;-26.094;27.994;2022-07-29T08:36:58;85273.52;;;10.68;19.69
74090;BME280;62448;-26.094;27.994;2022-07-29T08:39:23;85264.05;;;11.13;19.62
74090;BME280;62448;-26.094;27.994;2022-07-29T08:41:48;85264.88;;;10.79;19.81
74090;BME280;62448;-26.094;27.994;2022-07-29T08:44:15;85268.21;;;10.94;19.91
74090;BME280;62448;-26.094;27.994;2022-07-29T08:46:39;85266.98;;;10.97;20.28
74090;BME280;62448;-26.094;27.994;2022-07-29T08:49:04;85263.57;;;10.27;20.48
74090;BME280;62448;-26.094;27.994;2022-07-29T08:51:31;85258.43;;;10.57;20.23
74090;BME280;62448;-26.094;27.994;2022-07-29T08:53:56;85251.65;;;10.91;20.16
74090;BME280;62448;-26.094;27.994;2022-07-29T08:56:21;85255.49;;;10.71;20.15
74090;BME280;62448;-26.094;27.994;2022-07-29T08:58:47;85249.23;;;10.61;20.17
74090;BME280;62448;-26.094;27.994;2022-07-29T09:01:14;85244.46;;;10.78;20.05
74090;BME280;62448;-26.094;27.994;2022-07-29T09:03:37;85242.47;;;11.27;20.09
74090;BME280;62448;-26.094;27.994;2022-07-29T09:06:04;85239.06;;;10.96;20.22
74090;BME280;62448;-26.094;27.994;2022-07-29T09:08:29;85233.18;;;11.07;20.20
74090;BME280;62448;-26.094;27.994;2022-07-29T09:10:54;85230.18;;;10.75;20.37
74090;BME280;62448;-26.094;27.994;2022-07-29T09:13:24;85225.79;;;11.06;20.23
74090;BME280;62448;-26.094;27.994;2022-07-29T09:15:46;85219.96;;;10.91;20.22
74090;BME280;62448;-26.094;27.994;2022-07-29T09:18:11;85215.30;;;10.88;20.30
74090;BME280;62448;-26.094;27.994;2022-07-29T09:20:36;85202.38;;;10.96;20.23
74090;BME280;62448;-26.094;27.994;2022-07-29T09:23:08;85199.69;;;10.76;20.33
74090;BME280;62448;-26.094;27.994;2022-07-29T09:25:35;85198.88;;;11.00;20.23
74090;BME280;62448;-26.094;27.994;2022-07-29T09:27:53;85202.39;;;11.27;20.15
74090;BME280;62448;-26.094;27.994;2022-07-29T09:30:19;85199.09;;;11.05;20.21
74090;BME280;62448;-26.094;27.994;2022-07-29T09:33:03;85198.00;;;11.32;20.08
74090;BME280;62448;-26.094;27.994;2022-07-29T09:35:18;85193.35;;;11.15;20.17
74090;BME280;62448;-26.094;27.994;2022-07-29T09:37:35;85190.76;;;11.15;20.19
74090;BME280;62448;-26.094;27.994;2022-07-29T09:40:02;85184.67;;;11.57;19.99
74090;BME280;62448;-26.094;27.994;2022-07-29T09:42:29;85180.39;;;11.03;20.39
74090;BME280;62448;-26.094;27.994;2022-07-29T09:44:51;85175.77;;;10.88;20.85
74090;BME280;62448;-26.094;27.994;2022-07-29T09:47:42;85170.81;;;10.88;20.85
74090;BME280;62448;-26.094;27.994;2022-07-29T09:49:56;85169.46;;;10.71;20.57
74090;BME280;62448;-26.094;27.994;2022-07-29T09:52:21;85164.12;;;11.82;19.55
74090;BME280;62448;-26.094;27.994;2022-07-29T09:54:46;85161.56;;;11.23;19.92
74090;BME280;62448;-26.094;27.994;2022-07-29T09:57:25;85154.68;;;11.35;19.88
74090;BME280;62448;-26.094;27.994;2022-07-29T09:59:37;85152.71;;;11.31;19.80
74090;BME280;62448;-26.094;27.994;2022-07-29T10:02:11;85153.33;;;11.44;19.65
74090;BME280;62448;-26.094;27.994;2022-07-29T10:04:38;85145.24;;;11.39;19.51
74090;BME280;62448;-26.094;27.994;2022-07-29T10:06:58;85146.29;;;11.33;19.47
74090;BME280;62448;-26.094;27.994;2022-07-29T10:09:19;85138.52;;;11.38;19.33
74090;BME280;62448;-26.094;27.994;2022-07-29T10:12:03;85139.95;;;11.38;19.36
74090;BME280;62448;-26.094;27.994;2022-07-29T10:14:10;85136.52;;;11.46;19.28
74090;BME280;62448;-26.094;27.994;2022-07-29T10:16:36;85136.35;;;11.37;19.20
74090;BME280;62448;-26.094;27.994;2022-07-29T10:19:01;85130.97;;;11.72;19.04
74090;BME280;62448;-26.094;27.994;2022-07-29T10:21:26;85127.39;;;11.14;19.17
74090;BME280;62448;-26.094;27.994;2022-07-29T10:23:52;85120.17;;;11.29;19.12
74090;BME280;62448;-26.094;27.994;2022-07-29T10:26:17;85119.05;;;10.92;18.99
74090;BME280;62448;-26.094;27.994;2022-07-29T10:28:42;85111.64;;;11.48;18.79
74090;BME280;62448;-26.094;27.994;2022-07-29T10:31:10;85105.26;;;11.40;18.84
74090;BME280;62448;-26.094;27.994;2022-07-29T10:33:46;85105.67;;;11.60;18.67
74090;BME280;62448;-26.094;27.994;2022-07-29T10:36:49;85102.48;;;11.32;18.71
74090;BME280;62448;-26.094;27.994;2022-07-29T10:38:42;85101.84;;;11.43;18.66
74090;BME280;62448;-26.094;27.994;2022-07-29T10:40:54;85102.04;;;11.52;18.73
74090;BME280;62448;-26.094;27.994;2022-07-29T10:43:19;85096.81;;;11.25;18.82
74090;BME280;62448;-26.094;27.994;2022-07-29T10:45:39;85093.92;;;11.56;18.98
74090;BME280;62448;-26.094;27.994;2022-07-29T10:48:05;85092.48;;;10.54;19.72
74090;BME280;62448;-26.094;27.994;2022-07-29T10:50:52;85084.39;;;11.49;19.38
74090;BME280;62448;-26.094;27.994;2022-07-29T10:52:56;85075.71;;;11.93;19.18
74090;BME280;62448;-26.094;27.994;2022-07-29T10:55:38;85071.54;;;11.88;19.26
74090;BME280;62448;-26.094;27.994;2022-07-29T10:58:11;85064.55;;;11.89;19.14
74090;BME280;62448;-26.094;27.994;2022-07-29T11:00:34;85059.71;;;11.98;19.19
74090;BME280;62448;-26.094;27.994;2022-07-29T11:02:45;85057.86;;;12.09;18.99
74090;BME280;62448;-26.094;27.994;2022-07-29T11:05:04;85050.24;;;11.66;19.20
74090;BME280;62448;-26.094;27.994;2022-07-29T11:07:29;85046.18;;;12.22;19.10
74090;BME280;62448;-26.094;27.994;2022-07-29T11:10:35;85043.13;;;12.49;19.06
74090;BME280;62448;-26.094;27.994;2022-07-29T11:12:47;85044.09;;;11.93;19.16
74090;BME280;62448;-26.094;27.994;2022-07-29T11:15:03;85042.50;;;11.87;19.17
74090;BME280;62448;-26.094;27.994;2022-07-29T11:17:12;85041.50;;;12.12;19.15
74090;BME280;62448;-26.094;27.994;2022-07-29T11:19:38;85042.92;;;12.41;19.08
74090;BME280;62448;-26.094;27.994;2022-07-29T11:22:08;85042.68;;;12.26;19.15
74090;BME280;62448;-26.094;27.994;2022-07-29T11:24:29;85038.66;;;12.04;19.21
74090;BME280;62448;-26.094;27.994;2022-07-29T11:27:12;85036.69;;;11.96;19.27
74090;BME280;62448;-26.094;27.994;2022-07-29T11:29:21;85034.30;;;12.20;19.22
74090;BME280;62448;-26.094;27.994;2022-07-29T11:31:47;85029.44;;;12.03;19.31
74090;BME280;62448;-26.094;27.994;2022-07-29T11:34:29;85025.96;;;12.09;19.44
74090;BME280;62448;-26.094;27.994;2022-07-29T11:37:17;85026.05;;;12.44;19.50
74090;BME280;62448;-26.094;27.994;2022-07-29T11:39:26;85022.51;;;12.45;19.70
74090;BME280;62448;-26.094;27.994;2022-07-29T11:41:28;85020.09;;;11.95;20.19
74090;BME280;62448;-26.094;27.994;2022-07-29T11:43:55;85021.30;;;11.60;20.48
74090;BME280;62448;-26.094;27.994;2022-07-29T11:46:45;85017.82;;;11.62;20.50
74090;BME280;62448;-26.094;27.994;2022-07-29T11:48:45;85014.35;;;11.74;19.95
74090;BME280;62448;-26.094;27.994;2022-07-29T11:51:11;85014.19;;;12.00;19.54
74090;BME280;62448;-26.094;27.994;2022-07-29T11:53:36;85009.74;;;12.27;19.38
74090;BME280;62448;-26.094;27.994;2022-07-29T11:56:01;85004.35;;;12.08;19.35
74090;BME280;62448;-26.094;27.994;2022-07-29T11:58:28;85001.50;;;12.07;19.39
74090;BME280;62448;-26.094;27.994;2022-07-29T12:00:52;85002.77;;;12.18;19.27
74090;BME280;62448;-26.094;27.994;2022-07-29T12:03:25;85001.14;;;12.51;19.11
74090;BME280;62448;-26.094;27.994;2022-07-29T12:05:44;84995.50;;;12.63;19.11
74090;BME280;62448;-26.094;27.994;2022-07-29T12:08:11;84998.19;;;12.85;19.06
74090;BME280;62448;-26.094;27.994;2022-07-29T12:10:34;84994.87;;;12.84;18.89
74090;BME280;62448;-26.094;27.994;2022-07-29T12:12:59;84989.94;;;12.50;18.82
74090;BME280;62448;-26.094;27.994;2022-07-29T12:15:24;84984.60;;;12.23;19.06
74090;BME280;62448;-26.094;27.994;2022-07-29T12:17:50;84984.12;;;12.14;19.10
74090;BME280;62448;-26.094;27.994;2022-07-29T12:20:23;84984.16;;;12.49;19.00
74090;BME280;62448;-26.094;27.994;2022-07-29T12:22:41;84977.76;;;12.76;18.93
74090;BME280;62448;-26.094;27.994;2022-07-29T12:25:07;84977.83;;;12.69;18.96
74090;BME280;62448;-26.094;27.994;2022-07-29T12:27:31;84978.91;;;12.79;18.88
74090;BME280;62448;-26.094;27.994;2022-07-29T12:29:57;84976.45;;;12.79;18.84